createdAt,value
2022-09-14T00:02:02.201Z,15.86
2022-09-14T00:04:32.283Z,15.82
2022-09-14T00:07:02.245Z,15.78
2022-09-14T00:09:32.554Z,15.72
2022-09-14T00:12:01.994Z,15.66
2022-09-14T00:14:31.956Z,15.61
2022-09-14T00:17:01.580Z,15.58
2022-09-14T00:19:34.120Z,15.55
2022-09-14T00:22:15.338Z,15.49
2022-09-14T00:24:49.326Z,15.44
2022-09-14T00:27:17.991Z,15.41
2022-09-14T00:29:48.183Z,15.39
2022-09-14T00:32:19.489Z,15.35
2022-09-14T00:34:50.589Z,15.32
2022-09-14T00:37:21.812Z,15.27
2022-09-14T00:39:52.520Z,15.26
2022-09-14T00:42:25.141Z,15.24
2022-09-14T00:44:59.111Z,15.23
2022-09-14T00:47:30.962Z,15.21
2022-09-14T00:50:06.201Z,15.22
2022-09-14T00:52:40.340Z,15.20
2022-09-14T00:55:15.323Z,15.20
2022-09-14T00:57:48.788Z,15.19
2022-09-14T01:00:26.516Z,15.20
2022-09-14T01:02:58.919Z,15.22
2022-09-14T01:05:43.776Z,15.25
2022-09-14T01:08:26.391Z,15.28
2022-09-14T01:11:35.371Z,15.32
2022-09-14T01:14:47.883Z,15.35
2022-09-14T01:17:28.734Z,15.37
2022-09-14T01:20:28.862Z,15.36
2022-09-14T01:23:03.940Z,15.36
2022-09-14T01:26:29.466Z,15.36
2022-09-14T01:28:57.597Z,15.37
2022-09-14T01:32:00.656Z,15.37
2022-09-14T01:34:36.671Z,15.38
2022-09-14T01:37:36.562Z,15.39
2022-09-14T01:40:27.445Z,15.40
2022-09-14T01:43:42.074Z,15.40
2022-09-14T01:46:27.605Z,15.40
2022-09-14T01:49:28.498Z,15.40
2022-09-14T01:52:11.680Z,15.39
2022-09-14T01:54:52.062Z,15.37
2022-09-14T01:57:37.729Z,15.36
2022-09-14T02:00:11.653Z,15.35
2022-09-14T02:02:51.278Z,15.35
2022-09-14T02:05:31.245Z,15.34
2022-09-14T02:08:00.688Z,15.33
2022-09-14T02:10:31.610Z,15.33
2022-09-14T02:13:06.804Z,15.32
2022-09-14T02:15:37.008Z,15.32
2022-09-14T02:18:05.697Z,15.33
2022-09-14T02:20:47.918Z,15.34
2022-09-14T02:23:18.587Z,15.35
2022-09-14T02:25:47.761Z,15.37
2022-09-14T02:28:17.669Z,15.37
2022-09-14T02:30:49.740Z,15.35
2022-09-14T02:33:34.355Z,15.35
2022-09-14T02:36:16.090Z,15.38
2022-09-14T02:38:56.734Z,15.39
2022-09-14T02:41:48.543Z,15.40
2022-09-14T02:44:34.447Z,15.39
2022-09-14T02:47:10.906Z,15.39
2022-09-14T02:49:50.648Z,15.39
2022-09-14T02:52:50.157Z,15.41
2022-09-14T02:55:26.235Z,15.42
2022-09-14T02:58:11.925Z,15.41
2022-09-14T03:00:43.013Z,15.41
2022-09-14T03:03:12.301Z,15.41
2022-09-14T03:05:42.683Z,15.41
2022-09-14T03:08:12.316Z,15.42
2022-09-14T03:10:42.526Z,15.42
2022-09-14T03:13:11.277Z,15.38
2022-09-14T03:15:39.455Z,15.40
2022-09-14T03:18:12.305Z,15.39
2022-09-14T03:20:43.946Z,15.36
2022-09-14T03:23:13.209Z,15.33
2022-09-14T03:25:44.506Z,15.32
2022-09-14T03:28:14.268Z,15.30
2022-09-14T03:30:41.724Z,15.28
2022-09-14T03:33:09.210Z,15.27
2022-09-14T03:35:37.969Z,15.24
2022-09-14T03:38:04.558Z,15.22
2022-09-14T03:40:32.887Z,15.20
2022-09-14T03:43:00.633Z,15.18
2022-09-14T03:45:27.704Z,15.15
2022-09-14T03:47:55.142Z,15.14
2022-09-14T03:50:23.523Z,15.12
2022-09-14T03:52:52.203Z,15.11
2022-09-14T03:55:23.349Z,15.10
2022-09-14T03:57:53.897Z,15.07
2022-09-14T04:00:21.324Z,15.05
2022-09-14T04:02:51.510Z,15.04
2022-09-14T04:05:21.689Z,15.04
2022-09-14T04:07:49.587Z,15.02
2022-09-14T04:10:17.670Z,14.99
2022-09-14T04:12:48.713Z,14.97
2022-09-14T04:15:18.293Z,14.95
2022-09-14T04:17:52.381Z,14.95
2022-09-14T04:20:19.860Z,14.95
2022-09-14T04:22:47.974Z,14.94
2022-09-14T04:25:37.372Z,14.91
2022-09-14T04:28:19.743Z,14.89
2022-09-14T04:31:04.449Z,14.88
2022-09-14T04:33:35.071Z,14.87
2022-09-14T04:36:05.343Z,14.87
2022-09-14T04:38:35.382Z,14.88
2022-09-14T04:41:05.443Z,14.89
2022-09-14T04:43:32.155Z,14.90
2022-09-14T04:46:04.554Z,14.90
2022-09-14T04:48:36.139Z,14.90
2022-09-14T04:51:07.908Z,14.89
2022-09-14T04:53:37.292Z,14.88
2022-09-14T04:56:07.845Z,14.86
2022-09-14T04:58:39.620Z,14.87
2022-09-14T05:01:10.444Z,14.89
2022-09-14T05:03:40.127Z,14.92
2022-09-14T05:06:18.425Z,14.98
2022-09-14T05:08:46.086Z,15.01
2022-09-14T05:11:17.267Z,15.03
2022-09-14T05:13:49.998Z,15.04
2022-09-14T05:16:29.686Z,15.07
2022-09-14T05:19:19.525Z,15.11
2022-09-14T05:22:01.529Z,15.17
2022-09-14T05:24:29.417Z,15.20
2022-09-14T05:27:01.624Z,15.22
2022-09-14T05:29:32.145Z,15.26
2022-09-14T05:31:59.357Z,15.27
2022-09-14T05:34:28.316Z,15.28
2022-09-14T05:36:57.053Z,15.29
2022-09-14T05:39:25.312Z,15.32
2022-09-14T05:41:54.076Z,15.35
2022-09-14T05:44:21.287Z,15.37
2022-09-14T05:46:48.220Z,15.38
2022-09-14T05:49:15.479Z,15.41
2022-09-14T05:51:42.350Z,15.45
2022-09-14T05:54:16.808Z,15.50
2022-09-14T05:56:45.051Z,15.55
2022-09-14T05:59:14.395Z,15.61
2022-09-14T06:01:41.633Z,15.68
2022-09-14T06:04:12.479Z,15.74
2022-09-14T06:06:40.375Z,15.81
2022-09-14T06:09:08.662Z,15.87
2022-09-14T06:11:38.975Z,15.90
2022-09-14T06:14:06.561Z,15.96
2022-09-14T06:16:35.178Z,16.02
2022-09-14T06:19:01.935Z,16.09
2022-09-14T06:21:32.730Z,16.15
2022-09-14T06:24:01.718Z,16.22
2022-09-14T06:26:30.278Z,16.29
2022-09-14T06:28:57.073Z,16.34
2022-09-14T06:31:25.752Z,16.39
2022-09-14T06:33:53.841Z,16.45
2022-09-14T06:36:26.082Z,16.51
2022-09-14T06:38:54.620Z,16.58
2022-09-14T06:41:28.495Z,16.67
2022-09-14T06:43:58.214Z,16.75
2022-09-14T06:46:29.347Z,16.81
2022-09-14T06:49:02.661Z,16.86
2022-09-14T06:51:38.422Z,16.87
2022-09-14T06:54:06.186Z,16.89
2022-09-14T06:56:36.263Z,16.91
2022-09-14T06:59:04.528Z,16.93
2022-09-14T07:01:33.404Z,16.93
2022-09-14T07:04:02.386Z,16.95
2022-09-14T07:06:30.872Z,17.00
2022-09-14T07:08:57.944Z,17.05
2022-09-14T07:11:27.181Z,17.12
2022-09-14T07:13:56.722Z,17.20
2022-09-14T07:16:24.075Z,17.27
2022-09-14T07:18:54.822Z,17.35
2022-09-14T07:21:23.867Z,17.43
2022-09-14T07:23:52.687Z,17.51
2022-09-14T07:26:38.915Z,17.58
2022-09-14T07:29:14.783Z,17.64
2022-09-14T07:31:45.726Z,17.65
2022-09-14T07:34:13.026Z,17.69
2022-09-14T07:36:40.989Z,17.73
2022-09-14T07:39:11.018Z,17.80
2022-09-14T07:41:37.677Z,17.91
2022-09-14T07:44:06.788Z,18.01
2022-09-14T07:46:38.422Z,18.11
2022-09-14T07:49:06.337Z,18.18
2022-09-14T07:51:34.501Z,18.24
2022-09-14T07:54:01.669Z,18.28
2022-09-14T07:56:29.163Z,18.30
2022-09-14T07:59:11.505Z,18.34
2022-09-14T08:01:38.688Z,18.43
2022-09-14T08:04:07.312Z,18.48
2022-09-14T08:06:34.064Z,18.55
2022-09-14T08:09:09.351Z,18.60
2022-09-14T08:11:36.273Z,18.67
2022-09-14T08:14:12.115Z,18.69
2022-09-14T08:16:39.695Z,18.74
2022-09-14T08:19:14.295Z,18.83
2022-09-14T08:21:51.427Z,18.86
2022-09-14T08:24:51.563Z,18.98
2022-09-14T08:27:31.486Z,19.02
2022-09-14T08:30:49.680Z,19.03
2022-09-14T08:37:50.090Z,19.11
2022-09-14T08:40:20.392Z,19.19
2022-09-14T08:43:20.538Z,19.24
2022-09-14T08:47:33.398Z,19.28
2022-09-14T08:55:14.945Z,19.39
2022-09-14T08:57:52.778Z,19.47
2022-09-14T09:00:38.124Z,19.54
2022-09-14T09:03:39.604Z,19.57
2022-09-14T09:06:16.155Z,19.64
2022-09-14T09:09:02.353Z,19.73
2022-09-14T09:11:39.070Z,19.83
2022-09-14T09:14:18.533Z,19.94
2022-09-14T09:16:48.872Z,20.07
2022-09-14T09:19:28.457Z,20.21
2022-09-14T09:21:56.642Z,20.33
2022-09-14T09:24:39.120Z,20.46
2022-09-14T09:27:14.705Z,20.59
2022-09-14T09:29:42.925Z,20.66
2022-09-14T09:32:16.419Z,20.73
2022-09-14T09:35:06.481Z,20.86
2022-09-14T09:37:52.156Z,21.00
2022-09-14T09:40:29.550Z,21.07
2022-09-14T09:43:08.636Z,21.10
2022-09-14T09:45:58.818Z,21.16
2022-09-14T09:48:38.221Z,21.20
2022-09-14T09:51:10.673Z,21.26
2022-09-14T09:53:47.312Z,21.32
2022-09-14T09:56:26.698Z,21.36
2022-09-14T09:58:54.359Z,21.39
2022-09-14T10:01:28.512Z,21.42
2022-09-14T10:04:18.341Z,21.49
2022-09-14T10:06:51.475Z,21.50
2022-09-14T10:09:20.725Z,21.42
2022-09-14T10:11:56.767Z,21.38
2022-09-14T10:14:30.815Z,21.39
2022-09-14T10:17:07.329Z,21.37
2022-09-14T10:19:34.257Z,21.39
2022-09-14T10:22:16.662Z,21.42
2022-09-14T10:24:54.551Z,21.43
2022-09-14T10:27:53.538Z,21.41
2022-09-14T10:30:32.343Z,21.36
2022-09-14T10:33:01.980Z,21.33
2022-09-14T10:35:56.250Z,21.31
2022-09-14T10:38:34.439Z,21.29
2022-09-14T10:41:22.462Z,21.31
2022-09-14T10:44:04.888Z,21.31
2022-09-14T10:46:54.991Z,21.30
2022-09-14T10:49:42.511Z,21.33
2022-09-14T10:52:29.608Z,21.30
2022-09-14T10:55:23.074Z,21.30
2022-09-14T10:57:58.242Z,21.41
2022-09-14T11:00:30.388Z,21.55
2022-09-14T11:03:27.170Z,21.72
2022-09-14T11:06:15.513Z,21.88
2022-09-14T11:08:45.883Z,21.98
2022-09-14T11:11:24.217Z,22.00
2022-09-14T11:14:10.893Z,21.97
2022-09-14T11:16:55.821Z,21.96
2022-09-14T11:19:29.211Z,21.90
2022-09-14T11:22:08.102Z,21.86
2022-09-14T11:24:39.037Z,21.83
2022-09-14T11:27:11.235Z,21.82
2022-09-14T11:29:46.308Z,21.79
2022-09-14T11:32:22.331Z,21.80
2022-09-14T11:35:12.164Z,21.83
2022-09-14T11:37:46.541Z,21.80
2022-09-14T11:40:23.566Z,21.78
2022-09-14T11:43:10.085Z,21.75
2022-09-14T11:45:52.119Z,21.71
2022-09-14T11:48:58.045Z,21.69
2022-09-14T11:51:32.492Z,21.73
2022-09-14T11:53:59.055Z,21.74
2022-09-14T11:56:31.562Z,21.74
2022-09-14T11:59:01.508Z,21.72
2022-09-14T12:01:36.968Z,21.69
2022-09-14T12:04:07.883Z,21.71
2022-09-14T12:06:37.535Z,21.77
2022-09-14T12:09:14.777Z,21.88
2022-09-14T12:11:45.019Z,21.99
2022-09-14T12:14:23.756Z,22.12
2022-09-14T12:17:17.289Z,22.24
2022-09-14T12:19:52.148Z,22.33
2022-09-14T12:22:33.877Z,22.42
2022-09-14T12:25:22.565Z,22.50
2022-09-14T12:27:49.730Z,22.62
2022-09-14T12:30:41.312Z,22.71
2022-09-14T12:33:33.680Z,22.86
2022-09-14T12:36:10.810Z,22.99
2022-09-14T12:38:40.770Z,23.13
2022-09-14T12:41:10.612Z,23.22
2022-09-14T12:43:37.360Z,23.24
2022-09-14T12:46:19.185Z,23.32
2022-09-14T12:48:48.394Z,23.49
2022-09-14T12:51:25.025Z,23.56
2022-09-14T12:54:34.893Z,23.60
2022-09-14T12:57:06.948Z,23.58
2022-09-14T13:00:11.752Z,23.48
2022-09-14T13:02:56.921Z,23.32
2022-09-14T13:05:28.406Z,23.26
2022-09-14T13:07:55.899Z,23.19
2022-09-14T13:10:35.269Z,23.07
2022-09-14T13:13:14.997Z,22.91
2022-09-14T13:16:03.046Z,22.74
2022-09-14T13:18:35.394Z,22.66
2022-09-14T13:21:21.908Z,22.65
2022-09-14T13:23:48.818Z,22.74
2022-09-14T13:26:17.509Z,22.78
2022-09-14T13:28:46.334Z,22.77
2022-09-14T13:31:18.299Z,22.73
2022-09-14T13:33:51.078Z,22.69
2022-09-14T13:36:22.438Z,22.63
2022-09-14T13:38:50.193Z,22.51
2022-09-14T13:41:18.760Z,22.38
2022-09-14T13:43:49.060Z,22.31
2022-09-14T13:46:20.115Z,22.25
2022-09-14T13:48:47.343Z,22.18
2022-09-14T13:51:14.533Z,22.13
2022-09-14T13:53:49.912Z,22.09
2022-09-14T13:56:19.447Z,22.07
2022-09-14T13:58:48.707Z,22.09
2022-09-14T14:01:27.444Z,22.10
2022-09-14T14:03:55.205Z,22.12
2022-09-14T14:06:28.809Z,22.14
2022-09-14T14:09:09.744Z,22.24
2022-09-14T14:11:45.202Z,22.29
2022-09-14T14:14:32.113Z,22.36
2022-09-14T14:17:23.345Z,22.44
2022-09-14T14:19:55.139Z,22.53
2022-09-14T14:22:28.526Z,22.59
2022-09-14T14:25:12.871Z,22.57
2022-09-14T14:27:44.140Z,22.49
2022-09-14T14:30:15.804Z,22.36
2022-09-14T14:32:49.127Z,22.27
2022-09-14T14:35:19.404Z,22.16
2022-09-14T14:37:47.219Z,22.08
2022-09-14T14:40:16.077Z,22.00
2022-09-14T14:42:44.338Z,21.91
2022-09-14T14:45:18.465Z,21.81
2022-09-14T14:47:50.055Z,21.72
2022-09-14T14:50:22.365Z,21.63
2022-09-14T14:52:51.147Z,21.51
2022-09-14T14:55:19.208Z,21.37
2022-09-14T14:57:45.794Z,21.26
2022-09-14T15:00:17.242Z,21.13
2022-09-14T15:02:44.241Z,21.04
2022-09-14T15:05:12.044Z,20.96
2022-09-14T15:07:58.231Z,20.90
2022-09-14T15:10:29.839Z,20.84
2022-09-14T15:12:59.597Z,20.76
2022-09-14T15:15:26.355Z,20.76
2022-09-14T15:17:53.608Z,20.76
2022-09-14T15:20:22.837Z,20.79
2022-09-14T15:22:51.042Z,20.77
2022-09-14T15:25:19.436Z,20.76
2022-09-14T15:27:47.264Z,20.74
2022-09-14T15:30:16.141Z,20.71
2022-09-14T15:32:43.407Z,20.67
2022-09-14T15:35:13.582Z,20.61
2022-09-14T15:37:41.307Z,20.53
2022-09-14T15:40:09.266Z,20.43
2022-09-14T15:42:36.012Z,20.35
2022-09-14T15:45:05.319Z,20.26
2022-09-14T15:47:35.610Z,20.20
2022-09-14T15:50:05.355Z,20.12
2022-09-14T15:52:34.419Z,20.07
2022-09-14T15:55:00.957Z,20.00
2022-09-14T15:57:27.314Z,19.95
2022-09-14T15:59:54.317Z,19.91
2022-09-14T16:02:21.390Z,19.87
2022-09-14T16:04:48.047Z,19.84
2022-09-14T16:07:14.820Z,19.80
2022-09-14T16:09:41.614Z,19.75
2022-09-14T16:12:10.122Z,19.71
2022-09-14T16:14:36.465Z,19.66
2022-09-14T16:17:04.456Z,19.58
2022-09-14T16:19:31.282Z,19.49
2022-09-14T16:21:57.830Z,19.36
2022-09-14T16:24:25.150Z,19.25
2022-09-14T16:26:51.971Z,19.13
2022-09-14T16:29:20.217Z,19.03
2022-09-14T16:31:47.868Z,18.95
2022-09-14T16:34:21.235Z,18.88
2022-09-14T16:36:48.561Z,18.78
2022-09-14T16:39:18.870Z,18.69
2022-09-14T16:41:46.023Z,18.62
2022-09-14T16:44:20.208Z,18.55
2022-09-14T16:46:48.579Z,18.47
2022-09-14T16:49:16.278Z,18.42
2022-09-14T16:51:43.071Z,18.35
2022-09-14T16:54:14.286Z,18.33
2022-09-14T16:56:41.211Z,18.31
2022-09-14T16:59:07.840Z,18.27
2022-09-14T17:01:37.565Z,18.21
2022-09-14T17:04:08.895Z,18.19
2022-09-14T17:06:37.786Z,18.15
2022-09-14T17:09:07.591Z,18.12
2022-09-14T17:11:36.017Z,18.07
2022-09-14T17:14:03.279Z,18.02
2022-09-14T17:16:30.064Z,17.98
2022-09-14T17:19:00.133Z,17.96
2022-09-14T17:21:29.927Z,17.94
2022-09-14T17:23:57.719Z,17.92
2022-09-14T17:26:25.306Z,17.88
2022-09-14T17:28:55.562Z,17.85
2022-09-14T17:31:30.704Z,17.84
2022-09-14T17:34:00.296Z,17.83
2022-09-14T17:36:27.825Z,17.80
2022-09-14T17:38:59.142Z,17.77
2022-09-14T17:41:27.558Z,17.74
2022-09-14T17:43:57.151Z,17.73
2022-09-14T17:46:24.674Z,17.71
2022-09-14T17:48:51.505Z,17.71
2022-09-14T17:51:21.338Z,17.71
2022-09-14T17:53:51.390Z,17.71
2022-09-14T17:56:20.195Z,17.71
2022-09-14T17:58:48.319Z,17.71
2022-09-14T18:01:24.100Z,17.72
2022-09-14T18:03:53.703Z,17.72
2022-09-14T18:06:23.691Z,17.71
2022-09-14T18:08:55.578Z,17.70
2022-09-14T18:11:24.693Z,17.69
2022-09-14T18:13:51.245Z,17.70
2022-09-14T18:16:20.963Z,17.70
2022-09-14T18:18:47.692Z,17.70
2022-09-14T18:21:16.423Z,17.69
2022-09-14T18:23:43.327Z,17.69
2022-09-14T18:26:10.302Z,17.68
2022-09-14T18:28:36.657Z,17.68
2022-09-14T18:31:09.788Z,17.67
2022-09-14T18:33:36.811Z,17.68
2022-09-14T18:36:05.461Z,17.69
2022-09-14T18:38:33.052Z,17.69
2022-09-14T18:41:08.184Z,17.69
2022-09-14T18:43:35.553Z,17.69
2022-09-14T18:46:05.998Z,17.69
2022-09-14T18:48:33.980Z,17.69
2022-09-14T18:51:04.343Z,17.69
2022-09-14T18:53:31.391Z,17.70
2022-09-14T18:56:07.764Z,17.67
2022-09-14T18:58:36.357Z,17.69
2022-09-14T19:01:03.733Z,17.70
2022-09-14T19:03:31.895Z,17.69
2022-09-14T19:06:09.578Z,17.67
2022-09-14T19:08:36.789Z,17.67
2022-09-14T19:11:26.618Z,17.67
2022-09-14T19:14:01.129Z,17.67
2022-09-14T19:16:29.276Z,17.66
2022-09-14T19:18:55.872Z,17.68
2022-09-14T19:21:25.375Z,17.66
2022-09-14T19:24:07.033Z,17.65
2022-09-14T19:26:45.086Z,17.65
2022-09-14T19:29:14.602Z,17.66
2022-09-14T19:31:41.386Z,17.65
2022-09-14T19:34:11.011Z,17.64
2022-09-14T19:36:38.048Z,17.63
2022-09-14T19:39:05.295Z,17.61
2022-09-14T19:41:33.385Z,17.58
2022-09-14T19:44:04.234Z,17.56
2022-09-14T19:46:31.539Z,17.55
2022-09-14T19:48:59.341Z,17.55
2022-09-14T19:51:27.937Z,17.54
2022-09-14T19:53:56.892Z,17.53
2022-09-14T19:56:26.743Z,17.52
2022-09-14T19:58:56.820Z,17.52
2022-09-14T20:01:25.650Z,17.52
2022-09-14T20:03:53.210Z,17.51
2022-09-14T20:06:26.054Z,17.48
2022-09-14T20:08:55.370Z,17.47
2022-09-14T20:11:23.565Z,17.47
2022-09-14T20:13:54.141Z,17.47
2022-09-14T20:16:29.912Z,17.47
2022-09-14T20:18:59.547Z,17.46
2022-09-14T20:21:27.335Z,17.44
2022-09-14T20:24:15.539Z,17.42
2022-09-14T20:26:44.945Z,17.40
2022-09-14T20:29:11.776Z,17.38
2022-09-14T20:31:38.339Z,17.37
2022-09-14T20:34:05.003Z,17.36
2022-09-14T20:36:31.971Z,17.36
2022-09-14T20:38:59.128Z,17.35
2022-09-14T20:41:29.109Z,17.33
2022-09-14T20:43:55.840Z,17.31
2022-09-14T20:46:37.779Z,17.28
2022-09-14T20:49:05.842Z,17.26
2022-09-14T20:51:35.337Z,17.24
2022-09-14T20:54:02.039Z,17.23
2022-09-14T20:56:32.145Z,17.23
2022-09-14T20:59:00.766Z,17.22
2022-09-14T21:01:32.749Z,17.23
2022-09-14T21:04:06.069Z,17.23
2022-09-14T21:06:36.183Z,17.25
2022-09-14T21:09:04.795Z,17.26
2022-09-14T21:11:32.401Z,17.27
2022-09-14T21:14:00.344Z,17.26
2022-09-14T21:16:33.303Z,17.26
2022-09-14T21:19:06.611Z,17.25
2022-09-14T21:21:33.944Z,17.26
2022-09-14T21:24:01.201Z,17.25
2022-09-14T21:26:29.458Z,17.24
2022-09-14T21:28:58.782Z,17.24
2022-09-14T21:31:27.987Z,17.23
2022-09-14T21:33:58.294Z,17.23
2022-09-14T21:36:35.286Z,17.23
2022-09-14T21:39:09.244Z,17.27
2022-09-14T21:41:37.708Z,17.27
2022-09-14T21:44:04.791Z,17.26
2022-09-14T21:46:33.161Z,17.26
2022-09-14T21:48:59.818Z,17.26
2022-09-14T21:51:29.527Z,17.25
2022-09-14T21:53:58.353Z,17.23
2022-09-14T21:56:27.286Z,17.25
2022-09-14T21:58:56.991Z,17.27
2022-09-14T22:01:23.677Z,17.26
2022-09-14T22:03:52.187Z,17.27
2022-09-14T22:06:20.854Z,17.28
2022-09-14T22:08:48.571Z,17.23
2022-09-14T22:11:21.172Z,17.22
2022-09-14T22:13:57.881Z,17.23
2022-09-14T22:16:26.183Z,17.23
2022-09-14T22:18:55.814Z,17.20
2022-09-14T22:21:24.317Z,17.20
2022-09-14T22:23:56.388Z,17.20
2022-09-14T22:26:24.656Z,17.18
2022-09-14T22:28:53.198Z,17.19
2022-09-14T22:31:24.606Z,17.18
2022-09-14T22:33:54.877Z,17.18
2022-09-14T22:36:22.675Z,17.14
2022-09-14T22:38:49.533Z,17.11
2022-09-14T22:41:18.995Z,17.10
2022-09-14T22:43:46.066Z,17.08
2022-09-14T22:46:14.052Z,17.04
2022-09-14T22:48:41.031Z,16.98
2022-09-14T22:51:10.444Z,16.93
2022-09-14T22:53:37.406Z,16.90
2022-09-14T22:56:19.652Z,16.86
2022-09-14T22:58:47.423Z,16.83
2022-09-14T23:01:27.565Z,16.79
2022-09-14T23:04:01.467Z,16.77
2022-09-14T23:06:31.585Z,16.73
2022-09-14T23:08:59.773Z,16.68
2022-09-14T23:11:26.455Z,16.66
2022-09-14T23:13:54.057Z,16.63
2022-09-14T23:16:25.378Z,16.59
2022-09-14T23:18:53.935Z,16.51
2022-09-14T23:21:21.012Z,16.51
2022-09-14T23:23:55.782Z,16.46
2022-09-14T23:26:23.367Z,16.39
2022-09-14T23:29:00.968Z,16.32
2022-09-14T23:31:29.532Z,16.28
2022-09-14T23:33:58.125Z,16.26
2022-09-14T23:36:25.757Z,16.25
2022-09-14T23:38:52.930Z,16.23
2022-09-14T23:41:22.307Z,16.21
2022-09-14T23:43:49.536Z,16.19
2022-09-14T23:46:17.423Z,16.20
2022-09-14T23:48:45.219Z,16.18
2022-09-14T23:51:12.843Z,16.17
2022-09-14T23:53:40.085Z,16.16
2022-09-14T23:56:07.456Z,16.15
2022-09-14T23:58:34.435Z,16.17
